x

Sentry Shoal (46131) Wave Buoy

1:00pm - Thu 23rd Nov 2017 All times are PST. -8 hours from GMT.

  • Sig Wave height 0.7ft
  • Peak Period 3s
  • Wind
    11mph, 18mph gusts
  • Sea Temp 48°f
  • Air Temp 53°f
  • Sea Pressure 1005.5mb
  • Sentry Shoal
  • Sentry Shoal

More Historic Weather Station data

Upgrade to MSW Pro to gain access to the past 30 days of data for over 8000 Wavebouys and Weather Stations around the globe.

Join

Comparision Forecast

View Surf forecast
   
Thu 11/23 1:00pm 0.7ft 3s 11 18 mph 1005.5mb 48f 53f
12:00pm 0.7ft 3s 9 9 mph 1006.1mb 48f 52f
11:00am 0.7ft 3s 11 16 mph 1006.3mb 48f 51f
10:00am 0.7ft 3s 9 9 mph 1006.1mb 48f 51f
9:00am 1ft 3s 7 9 mph 1006.2mb 48f 48f
8:00am 1ft 3s 7 9 mph 1005.9mb 48f 51f
7:00am 1.3ft 4s 13 16 mph 1005.5mb 48f 52f
6:00am 1.3ft 3s 11 13 mph 1005.9mb 48f 52f
5:00am 1ft 4s 9 13 mph 1006.2mb 48f 51f
4:00am 1ft 2s 13 16 mph 1006mb 48f 51f
3:00am 1ft 2s 16 18 mph 1006mb 48f 52f
2:00am 1ft 3s 16 20 mph 1005.8mb 48f 53f
1:00am 1.3ft 3s 2 4 mph 1006.3mb 48f 54f
12:00am 1.6ft 4s 4 9 mph 1005.9mb 48f 52f
Wed 11/22 11:00pm 2.5ft 4s 13 18 mph 1004.8mb 48f 54f
10:00pm 2.5ft 4s 16 20 mph 1004.4mb 48f 54f
9:00pm 2.5ft 4s 16 20 mph 1004mb 48f 53f
8:00pm 3.5ft 4s 20 22 mph 1003.2mb 48f 55f
7:00pm 3.5ft 5s 22 27 mph 1003.1mb 48f 53f
6:00pm 3.5ft 5s 20 25 mph 1003.3mb 48f 53f
5:00pm 4.5ft 5s 20 25 mph 1003mb 48f 52f
4:00pm 5ft 6s 25 29 mph 1003mb 48f 54f
3:00pm 4.5ft 6s 25 29 mph 1003.4mb 48f 54f
2:00pm 5ft 5s 25 29 mph 1003.9mb 48f 54f
1:00pm 4.5ft 5s 22 31 mph 1004.6mb 48f 54f
12:00pm 4ft 5s 22 27 mph 1006.4mb 48f 53f
11:00am 4.5ft 5s 27 31 mph 1007.4mb 48f 53f
10:00am 4.5ft 5s 27 36 mph 1007.4mb 48f 53f
9:00am 4ft 4s 22 27 mph 1008.3mb 48f 52f
8:00am 3.5ft 4s 18 22 mph 1008.8mb 48f 51f
7:00am 3.5ft 5s 20 25 mph 1008.8mb 48f 52f
6:00am 2ft 4s 13 16 mph 1009.7mb 48f 51f
5:00am 1.6ft 4s 2 7 mph 1010mb 48f 47f
4:00am 1.6ft 4s 2 4 mph 1010.6mb 48f 46f
3:00am 1ft 4s 2 4 mph 1010.7mb 47f 46f
2:00am 0.7ft 4s 4 4 mph 1011mb 47f 45f
Tue 11/21 6:00pm 1.3ft 4s 9 11 mph 1008mb 48f 45f
5:00pm 1.3ft 3s 9 11 mph 1007.8mb 48f 44f
4:00pm 1ft 3s 11 13 mph 1007.4mb 48f 44f
3:00pm 1ft 3s 11 13 mph 1007.3mb 48f 43f
2:00pm 1ft 3s 11 13 mph 1007.5mb 48f 43f
1:00pm 1ft 2s 13 16 mph 1009.2mb 48f 42f
12:00pm 1ft 2s 13 16 mph 1010.8mb 48f 42f
11:00am 1ft 3s 13 13 mph 1012.8mb 48f 42f
10:00am 1ft 2s 13 18 mph 1014mb 48f 41f
9:00am 0.7ft 3s 16 18 mph 1015.1mb 48f 43f
8:00am 0.3ft 3s 7 9 mph 1015.2mb 48f 44f
7:00am 0.7ft 3s 4 4 mph 1015.3mb 47f 45f
6:00am 0.3ft 2s 2 4 mph 1016.1mb 47f 45f
5:00am 0.3ft 2s 4 4 mph 1017.3mb 48f 45f
4:00am 0.3ft 2s 7 9 mph 1017.4mb 48f 45f
3:00am 0.3ft 3s 7 7 mph 1017.8mb 48f 45f
2:00am 0.7ft 3s 4 7 mph 1018.2mb 48f 45f
1:00am 1.3ft 3s 9 11 mph 1018.1mb 48f 46f
12:00am 1ft 3s 13 16 mph 1018mb 48f 46f
Mon 11/20 11:00pm 0.7ft 2s 13 13 mph 1017.9mb 48f 46f
10:00pm 0.3ft 2s 11 11 mph 1017.4mb 48f 46f
9:00pm 0.3ft 3s 9 9 mph 1017mb 48f 46f
8:00pm 0.3ft 2s 4 4 mph 1016.1mb 48f 47f
7:00pm 0.3ft 2s 7 9 mph 1015mb 48f 46f
6:00pm 0.3ft 4s 4 4 mph 1013.3mb 48f 47f
5:00pm 0.3ft 2s  -  2 mph 1012.2mb 49f 47f
4:00pm 0.3ft 2s 4 4 mph 1011.5mb 49f 47f
3:00pm 0.3ft 2s 4 7 mph 1010.1mb 49f 47f
2:00pm 0.3ft 2s 7 9 mph 1009.3mb 49f 47f
1:00pm 0.7ft 2s 9 9 mph 1008.8mb 49f 46f
12:00pm 0.7ft 2s 11 13 mph 1007.2mb 48f 46f
11:00am 0.7ft 2s 9 13 mph 1006mb 48f 44f
10:00am 1ft 3s 11 13 mph 1004.5mb 48f 44f
9:00am 1ft 3s 13 16 mph 1003.2mb 48f 44f
8:00am 1ft 2s 16 18 mph 1002mb 48f 43f
7:00am 1.3ft 5s 13 16 mph 1001.3mb 48f 43f
6:00am 1.3ft 5s 13 16 mph 1001mb 48f 44f
5:00am 1.6ft 5s 9 11 mph 1000.8mb 48f 44f
4:00am 2ft 6s 9 9 mph 1000.6mb 48f 44f
3:00am 2.5ft 5s 11 13 mph 1000.9mb 48f 45f
2:00am 2.5ft 6s 9 9 mph 1001.3mb 48f 45f
1:00am 2.5ft 5s 11 20 mph 1000.9mb 48f 44f
12:00am 3ft 5s 7 11 mph 1000.8mb 48f 44f
Sun 11/19 11:00pm 2.5ft 6s 7 11 mph 1000.5mb 48f 44f